Time;durP1;ratioP1;P1;durP2;ratioP2;P2;SDS_P1;SDS_P2;PMS_P1;PMS_P2;Temp;Humidity;BMP_temperature;BMP_pressure;BME280_temperature;BME280_humidity;BME280_pressure;Samples;Min_cycle;Max_cycle;Signal;HPM_P1;HPM_P2
2023/08/24 00:00:53;;;;;;;3.95;3.08;;;24.50;99.90;;;;;;7391369;19;20142;-75
2023/08/24 00:03:21;;;;;;;4.55;3.22;;;24.30;99.90;;;;;;7392139;19;20158;-75
2023/08/24 00:05:48;;;;;;;5.65;3.30;;;24.30;99.90;;;;;;7392181;19;20169;-75
2023/08/24 00:08:14;;;;;;;4.05;2.97;;;24.50;99.90;;;;;;7389241;19;20580;-75
2023/08/24 00:10:43;;;;;;;5.50;3.22;;;24.50;99.90;;;;;;7391251;19;20146;-74
2023/08/24 00:13:09;;;;;;;4.85;2.97;;;24.30;99.90;;;;;;7391037;19;20618;-75
2023/08/24 00:15:36;;;;;;;4.65;2.95;;;24.50;99.90;;;;;;7392252;19;20478;-75
2023/08/24 00:18:02;;;;;;;5.05;3.13;;;24.50;99.90;;;;;;7390121;19;20489;-75
2023/08/24 00:20:28;;;;;;;5.10;3.10;;;24.60;99.90;;;;;;7385339;19;20138;-75
2023/08/24 00:22:54;;;;;;;6.38;3.50;;;24.70;99.90;;;;;;7383892;19;20156;-73
2023/08/24 00:25:20;;;;;;;4.43;3.03;;;24.70;99.90;;;;;;7389176;19;20139;-74
2023/08/24 00:27:45;;;;;;;4.95;3.20;;;24.70;99.90;;;;;;7391149;19;20141;-75
2023/08/24 00:30:11;;;;;;;4.22;2.65;;;24.70;99.90;;;;;;7391364;19;20207;-75
2023/08/24 00:32:37;;;;;;;5.15;3.40;;;24.60;99.90;;;;;;7387355;19;20704;-76
2023/08/24 00:35:05;;;;;;;4.95;3.08;;;24.50;99.90;;;;;;7390858;19;20177;-75
2023/08/24 00:37:31;;;;;;;5.38;3.40;;;24.30;99.90;;;;;;7388520;19;20213;-75
2023/08/24 00:40:00;;;;;;;3.80;3.10;;;24.40;99.90;;;;;;7391475;19;20230;-75
2023/08/24 00:42:26;;;;;;;4.93;3.38;;;24.50;99.90;;;;;;7388360;19;20164;-74
2023/08/24 00:44:51;;;;;;;4.80;3.50;;;24.40;99.90;;;;;;7389828;19;20152;-75
2023/08/24 00:47:17;;;;;;;4.55;3.70;;;24.50;99.90;;;;;;7390329;19;20138;-75
2023/08/24 00:49:43;;;;;;;5.82;4.03;;;24.60;99.90;;;;;;7391537;19;20156;-74
2023/08/24 00:52:10;;;;;;;4.82;3.50;;;24.60;99.90;;;;;;7388893;19;20963;-74
2023/08/24 00:54:38;;;;;;;5.28;3.88;;;24.20;99.90;;;;;;7387952;19;20141;-74
2023/08/24 00:57:05;;;;;;;9.63;3.92;;;23.90;99.90;;;;;;7392012;19;20162;-75
2023/08/24 00:59:31;;;;;;;5.70;3.83;;;24.00;99.90;;;;;;7388372;19;20130;-74
2023/08/24 01:01:59;;;;;;;5.60;3.55;;;23.70;99.90;;;;;;7388894;19;20152;-73
2023/08/24 01:04:25;;;;;;;4.70;3.70;;;23.90;99.90;;;;;;7388089;19;20530;-74
2023/08/24 01:06:52;;;;;;;5.78;4.25;;;24.10;99.90;;;;;;7388561;19;20574;-73
2023/08/24 01:09:19;;;;;;;5.90;3.90;;;24.20;99.90;;;;;;7389977;19;20151;-75
2023/08/24 01:12:02;;;;;;;7.03;4.15;;;24.20;99.90;;;;;;7388729;19;20540;-74
2023/08/24 01:15:00;;;;;;;4.43;3.97;;;24.30;99.90;;;;;;7391082;19;20143;-74
2023/08/24 01:17:29;;;;;;;5.10;3.47;;;24.30;99.90;;;;;;7390078;19;20143;-74
2023/08/24 01:19:56;;;;;;;4.60;3.30;;;24.30;99.90;;;;;;7388242;19;20353;-75
2023/08/24 01:22:27;;;;;;;3.70;2.88;;;24.30;99.90;;;;;;7387774;19;20658;-73
2023/08/24 01:25:13;;;;;;;4.05;3.15;;;24.30;99.90;;;;;;7389905;19;20139;-74
2023/08/24 01:27:40;;;;;;;4.50;3.03;;;24.30;99.90;;;;;;7389759;19;20146;-74
2023/08/24 01:30:07;;;;;;;5.72;3.03;;;24.30;99.90;;;;;;7391256;19;20468;-74
2023/08/24 01:32:36;;;;;;;5.13;3.30;;;24.30;99.90;;;;;;7387417;19;20149;-73
2023/08/24 01:35:05;;;;;;;5.03;3.33;;;24.40;99.90;;;;;;7389755;19;20158;-74
2023/08/24 01:37:35;;;;;;;3.67;2.90;;;24.30;99.90;;;;;;7389562;19;20491;-74
2023/08/24 01:40:14;;;;;;;8.52;3.40;;;24.40;99.90;;;;;;7388581;19;20162;-75
2023/08/24 01:42:51;;;;;;;4.60;3.30;;;24.40;99.90;;;;;;7388270;19;20139;-74
2023/08/24 01:45:18;;;;;;;4.32;3.58;;;24.20;99.90;;;;;;7382937;19;20145;-73
2023/08/24 01:47:47;;;;;;;5.13;3.55;;;24.10;99.90;;;;;;7388772;19;20165;-74
2023/08/24 01:50:13;;;;;;;4.63;3.38;;;24.10;99.90;;;;;;7390452;19;20135;-74
2023/08/24 01:52:39;;;;;;;3.72;3.25;;;24.20;99.90;;;;;;7388045;19;20159;-73
2023/08/24 01:55:06;;;;;;;4.78;3.05;;;24.20;99.90;;;;;;7388558;19;20150;-74
2023/08/24 01:57:31;;;;;;;4.20;3.15;;;24.10;99.90;;;;;;7388509;19;20139;-75
2023/08/24 01:59:57;;;;;;;4.60;2.95;;;24.10;99.90;;;;;;7390104;19;20127;-74
2023/08/24 02:02:24;;;;;;;3.80;3.40;;;24.00;99.90;;;;;;7385497;19;20130;-74
2023/08/24 02:04:50;;;;;;;3.78;3.38;;;24.00;99.90;;;;;;7387185;19;20313;-75
2023/08/24 02:07:16;;;;;;;5.00;3.40;;;24.00;99.90;;;;;;7388071;19;20139;-74
2023/08/24 02:09:42;;;;;;;4.47;3.13;;;23.80;99.90;;;;;;7389131;19;20146;-74
2023/08/24 02:12:08;;;;;;;5.60;3.30;;;23.60;99.90;;;;;;7387240;19;20142;-74
2023/08/24 02:14:33;;;;;;;4.65;3.10;;;23.70;99.90;;;;;;7387821;19;20926;-73
2023/08/24 02:16:59;;;;;;;5.32;3.60;;;23.80;99.90;;;;;;7387754;19;20142;-74
2023/08/24 02:19:25;;;;;;;3.80;3.40;;;23.80;99.90;;;;;;7386187;19;20149;-73
2023/08/24 02:21:51;;;;;;;3.70;3.20;;;23.70;99.90;;;;;;7386388;19;20138;-74
2023/08/24 02:24:16;;;;;;;5.25;3.55;;;23.70;99.90;;;;;;7387443;19;20165;-74
2023/08/24 02:26:42;;;;;;;4.75;3.47;;;23.80;99.90;;;;;;7386769;19;20138;-74
2023/08/24 02:29:08;;;;;;;7.32;4.07;;;23.90;99.90;;;;;;7387897;19;20153;-74
2023/08/24 02:31:34;;;;;;;4.68;4.07;;;23.90;99.90;;;;;;7388905;19;20480;-73
2023/08/24 02:33:59;;;;;;;4.13;3.72;;;23.80;99.90;;;;;;7387232;19;20127;-73
2023/08/24 02:36:25;;;;;;;7.03;5.35;;;23.80;99.90;;;;;;7386564;19;20144;-73
2023/08/24 02:38:51;;;;;;;6.05;4.40;;;23.80;99.90;;;;;;7387757;19;20158;-73
2023/08/24 02:41:17;;;;;;;5.72;4.30;;;23.50;99.90;;;;;;7385410;19;20138;-75
2023/08/24 02:43:45;;;;;;;8.07;4.20;;;23.50;99.90;;;;;;7383423;19;20154;-74
2023/08/24 02:46:10;;;;;;;8.68;4.43;;;23.60;99.90;;;;;;7388371;19;20173;-74
2023/08/24 02:48:36;;;;;;;8.27;5.35;;;23.70;99.90;;;;;;7388006;19;20234;-74
2023/08/24 02:51:04;;;;;;;6.72;4.38;;;23.70;99.90;;;;;;7387775;19;20156;-74
2023/08/24 02:53:29;;;;;;;5.93;4.22;;;23.40;99.90;;;;;;7388882;19;20151;-73
2023/08/24 02:55:55;;;;;;;4.78;4.30;;;23.50;99.90;;;;;;7386904;19;20142;-74
2023/08/24 02:58:22;;;;;;;5.38;4.53;;;23.30;99.90;;;;;;7388796;19;20161;-74
2023/08/24 03:00:48;;;;;;;5.57;4.45;;;23.20;99.90;;;;;;7387617;19;20134;-73
2023/08/24 03:03:15;;;;;;;6.47;4.93;;;23.50;99.90;;;;;;7388271;19;20149;-74
2023/08/24 03:05:41;;;;;;;7.65;4.63;;;23.60;99.90;;;;;;7389008;19;20633;-73
2023/08/24 03:08:07;;;;;;;6.03;4.57;;;23.60;99.90;;;;;;7388256;19;20147;-75
2023/08/24 03:10:36;;;;;;;7.75;4.95;;;23.50;99.90;;;;;;7386351;19;20177;-74
2023/08/24 03:13:03;;;;;;;5.90;4.65;;;23.60;99.90;;;;;;7386262;19;20146;-75
2023/08/24 03:15:30;;;;;;;5.38;4.10;;;23.50;99.90;;;;;;7385673;19;20143;-74
2023/08/24 03:17:56;;;;;;;7.68;5.10;;;23.40;99.90;;;;;;7384444;19;20163;-74
2023/08/24 03:20:22;;;;;;;6.07;4.38;;;23.40;99.90;;;;;;7386943;19;20195;-75
2023/08/24 03:22:48;;;;;;;5.20;4.70;;;23.50;99.90;;;;;;7386987;19;20142;-75
2023/08/24 03:25:14;;;;;;;8.52;4.65;;;23.60;99.90;;;;;;7386383;19;20209;-75
2023/08/24 03:27:39;;;;;;;8.90;4.88;;;23.60;99.90;;;;;;7387241;19;20224;-72
2023/08/24 03:30:06;;;;;;;6.95;4.88;;;23.40;99.90;;;;;;7388021;19;20618;-73
2023/08/24 03:32:32;;;;;;;6.80;5.07;;;23.50;99.90;;;;;;7385650;19;20134;-73
2023/08/24 03:35:02;;;;;;;5.95;4.55;;;23.40;99.90;;;;;;7386535;19;20146;-73
2023/08/24 03:37:28;;;;;;;5.45;4.95;;;23.50;99.90;;;;;;7385855;19;20154;-72
2023/08/24 03:39:54;;;;;;;5.80;4.68;;;23.50;99.90;;;;;;7386875;19;20127;-71
2023/08/24 03:42:20;;;;;;;8.18;5.30;;;23.30;99.90;;;;;;7381531;19;20139;-72
2023/08/24 03:44:45;;;;;;;6.65;5.25;;;23.00;99.90;;;;;;7384911;19;20156;-72
2023/08/24 03:47:11;;;;;;;8.48;5.88;;;23.10;99.90;;;;;;7386916;19;20202;-74
2023/08/24 03:49:37;;;;;;;10.85;5.75;;;23.10;99.90;;;;;;7386549;19;20431;-72
2023/08/24 03:52:03;;;;;;;9.65;5.65;;;23.30;99.90;;;;;;7384867;19;20818;-72
2023/08/24 03:54:29;;;;;;;8.13;5.50;;;23.20;99.90;;;;;;7384649;19;20149;-73
2023/08/24 03:56:55;;;;;;;11.07;5.75;;;23.00;99.90;;;;;;7384924;19;20151;-73
2023/08/24 03:59:20;;;;;;;9.70;6.10;;;23.20;99.90;;;;;;7384362;19;20146;-71
2023/08/24 04:01:46;;;;;;;10.07;5.82;;;23.30;99.90;;;;;;7382803;19;20487;-73
2023/08/24 04:04:12;;;;;;;7.88;6.07;;;22.90;99.90;;;;;;7378153;19;20154;-74
2023/08/24 04:06:38;;;;;;;9.38;5.75;;;22.60;99.90;;;;;;7384221;19;20135;-72
2023/08/24 04:09:06;;;;;;;8.38;5.53;;;22.80;99.90;;;;;;7385866;19;20147;-73
2023/08/24 04:11:32;;;;;;;7.80;5.55;;;23.00;99.90;;;;;;7383387;19;20270;-72
2023/08/24 04:13:57;;;;;;;8.10;5.57;;;23.00;99.90;;;;;;7384308;19;20165;-72
2023/08/24 04:16:23;;;;;;;7.28;5.15;;;22.70;99.90;;;;;;7385107;19;20244;-71
2023/08/24 04:18:49;;;;;;;7.57;5.47;;;22.50;99.90;;;;;;7384941;19;20186;-71
2023/08/24 04:21:15;;;;;;;7.65;5.22;;;22.70;99.90;;;;;;7382431;19;20150;-72
2023/08/24 04:23:44;;;;;;;7.88;5.00;;;23.00;99.90;;;;;;7386049;19;20471;-72
2023/08/24 04:26:13;;;;;;;5.90;4.65;;;22.90;99.90;;;;;;7383101;19;20543;-72
2023/08/24 04:28:39;;;;;;;8.52;4.60;;;22.90;99.90;;;;;;7391406;19;20153;-70
2023/08/24 04:31:05;;;;;;;7.18;5.13;;;22.70;99.90;;;;;;7390473;19;20139;-71
2023/08/24 04:33:31;;;;;;;9.25;5.10;;;23.10;99.90;;;;;;7389881;19;20147;-72
2023/08/24 04:35:58;;;;;;;5.30;4.53;;;23.30;99.90;;;;;;7391170;19;20134;-72
2023/08/24 04:38:23;;;;;;;5.32;4.55;;;23.40;99.90;;;;;;7391511;19;20233;-72
2023/08/24 04:40:54;;;;;;;6.63;4.55;;;23.40;99.90;;;;;;7390571;19;20175;-71
2023/08/24 04:43:22;;;;;;;6.90;4.60;;;23.40;99.90;;;;;;7389322;19;20145;-72
2023/08/24 04:45:55;;;;;;;7.18;5.22;;;23.30;99.90;;;;;;7389545;19;20206;-71
2023/08/24 04:48:21;;;;;;;9.70;5.18;;;23.30;99.90;;;;;;7389555;19;20537;-71
2023/08/24 04:50:49;;;;;;;6.45;4.90;;;23.30;99.90;;;;;;7392705;19;20138;-71
2023/08/24 04:53:17;;;;;;;8.80;4.75;;;23.40;99.90;;;;;;7390306;19;20131;-72
2023/08/24 04:55:43;;;;;;;5.93;4.68;;;23.40;99.90;;;;;;7392730;19;20156;-73
2023/08/24 04:58:10;;;;;;;6.93;4.68;;;23.20;99.90;;;;;;7389303;19;20135;-72
2023/08/24 05:00:37;;;;;;;8.95;4.70;;;23.40;99.90;;;;;;7389836;19;20135;-72
2023/08/24 05:03:05;;;;;;;8.93;4.72;;;23.50;99.90;;;;;;7389297;19;20146;-71
2023/08/24 05:05:34;;;;;;;7.82;5.00;;;23.50;99.90;;;;;;7387527;19;20175;-73
2023/08/24 05:08:01;;;;;;;8.15;5.25;;;23.50;99.90;;;;;;7390191;19;20171;-71
2023/08/24 05:10:30;;;;;;;7.22;5.03;;;23.50;99.90;;;;;;7389216;19;20138;-72
2023/08/24 05:12:56;;;;;;;6.38;4.00;;;23.50;99.90;;;;;;7388585;19;20138;-71
2023/08/24 05:15:22;;;;;;;7.43;4.72;;;23.50;99.90;;;;;;7392379;19;20571;-71
2023/08/24 05:17:48;;;;;;;4.88;4.38;;;23.50;99.90;;;;;;7389062;19;20127;-72
2023/08/24 05:20:13;;;;;;;11.88;5.15;;;23.40;99.90;;;;;;7389763;19;20614;-72
2023/08/24 05:22:40;;;;;;;5.00;4.43;;;23.50;99.90;;;;;;7387884;19;20502;-73
2023/08/24 05:25:06;;;;;;;6.30;4.20;;;23.50;99.90;;;;;;7389365;19;20135;-73
2023/08/24 05:27:32;;;;;;;5.45;3.80;;;23.60;99.90;;;;;;7390219;19;20155;-71
2023/08/24 05:29:58;;;;;;;4.68;3.85;;;23.60;99.90;;;;;;7388146;19;20659;-73
2023/08/24 05:32:24;;;;;;;4.72;3.97;;;23.60;99.90;;;;;;7385751;19;20489;-72
2023/08/24 05:34:50;;;;;;;9.38;4.35;;;23.70;99.90;;;;;;7385943;19;20138;-72
2023/08/24 05:37:16;;;;;;;9.07;5.10;;;23.80;99.90;;;;;;7385491;19;20150;-71
2023/08/24 05:39:42;;;;;;;7.28;4.80;;;23.70;99.90;;;;;;7386992;19;20226;-74
2023/08/24 05:42:09;;;;;;;5.10;4.60;;;23.60;99.90;;;;;;7385687;19;20486;-74
2023/08/24 05:44:35;;;;;;;6.57;4.88;;;23.60;99.90;;;;;;7390760;19;20159;-75
2023/08/24 05:47:00;;;;;;;7.40;5.05;;;23.60;99.90;;;;;;7389179;19;20169;-76
2023/08/24 05:49:26;;;;;;;6.90;4.50;;;23.60;99.90;;;;;;7389667;19;20146;-74
2023/08/24 05:51:52;;;;;;;8.50;5.40;;;23.60;99.90;;;;;;7388495;19;20252;-74
2023/08/24 05:54:18;;;;;;;5.53;4.38;;;23.50;99.90;;;;;;7390415;19;20142;-76
2023/08/24 05:56:47;;;;;;;7.80;4.85;;;23.60;99.90;;;;;;7389707;19;20159;-74
2023/08/24 05:59:16;;;;;;;6.38;4.53;;;23.60;99.90;;;;;;7386626;19;20169;-73
2023/08/24 06:01:42;;;;;;;5.18;4.40;;;23.70;99.90;;;;;;7385283;19;20399;-72
2023/08/24 06:04:09;;;;;;;4.00;3.60;;;23.80;99.90;;;;;;7384565;19;20200;-72
2023/08/24 06:06:37;;;;;;;7.25;4.28;;;23.90;99.90;;;;;;7389335;19;20135;-72
2023/08/24 06:09:06;;;;;;;4.18;3.72;;;23.90;99.90;;;;;;7389040;19;20139;-72
2023/08/24 06:11:32;;;;;;;5.53;4.40;;;23.80;99.90;;;;;;7387969;19;20135;-71
2023/08/24 06:13:58;;;;;;;8.68;4.80;;;23.80;99.90;;;;;;7386752;19;20169;-73
2023/08/24 06:16:24;;;;;;;5.10;4.60;;;23.90;99.90;;;;;;7388257;19;20142;-73
2023/08/24 06:18:50;;;;;;;6.00;4.05;;;23.90;99.90;;;;;;7387252;19;20573;-73
2023/08/24 06:21:16;;;;;;;5.03;4.18;;;23.90;99.90;;;;;;7388987;19;20148;-74
2023/08/24 06:23:44;;;;;;;7.03;4.50;;;24.00;99.90;;;;;;7389034;19;20157;-75
2023/08/24 06:26:09;;;;;;;6.85;4.05;;;24.00;99.90;;;;;;7389470;19;20149;-76
2023/08/24 06:28:35;;;;;;;7.72;5.03;;;24.00;99.90;;;;;;7388017;19;20146;-74
2023/08/24 06:31:01;;;;;;;4.97;4.22;;;24.00;99.90;;;;;;7388058;19;20166;-73
2023/08/24 06:33:30;;;;;;;7.40;4.35;;;24.00;99.90;;;;;;7389157;19;20540;-75
2023/08/24 06:35:59;;;;;;;4.70;4.00;;;24.00;99.90;;;;;;7388211;19;20143;-74
2023/08/24 06:38:25;;;;;;;4.25;3.85;;;24.00;99.90;;;;;;7387338;19;20150;-74
2023/08/24 06:40:51;;;;;;;6.68;4.00;;;24.10;99.90;;;;;;7387082;19;20135;-74
2023/08/24 06:43:17;;;;;;;7.22;3.80;;;24.10;99.90;;;;;;7386942;19;20246;-75
2023/08/24 06:45:44;;;;;;;5.13;3.80;;;24.10;99.90;;;;;;7387561;19;20146;-74
2023/08/24 06:48:10;;;;;;;8.20;4.53;;;24.10;99.90;;;;;;7388579;19;20226;-74
2023/08/24 06:50:36;;;;;;;5.70;4.10;;;24.00;99.90;;;;;;7385191;19;20505;-75
2023/08/24 06:53:05;;;;;;;7.60;4.22;;;24.10;99.90;;;;;;7388100;19;20130;-74
2023/08/24 06:55:31;;;;;;;6.80;4.47;;;24.10;99.90;;;;;;7385450;19;20122;-72
2023/08/24 06:57:57;;;;;;;5.80;4.70;;;24.00;99.90;;;;;;7386610;19;20134;-73
2023/08/24 07:00:23;;;;;;;11.30;4.68;;;24.00;99.90;;;;;;7386727;19;20187;-74
2023/08/24 07:02:49;;;;;;;8.27;4.72;;;24.00;99.90;;;;;;7385583;19;20606;-76
2023/08/24 07:05:18;;;;;;;5.47;4.40;;;24.00;99.90;;;;;;7384004;19;20154;-75
2023/08/24 07:07:49;;;;;;;6.63;4.63;;;24.00;99.90;;;;;;7387770;19;20141;-74
2023/08/24 07:10:15;;;;;;;5.85;4.35;;;24.00;99.90;;;;;;7387751;19;20583;-73
2023/08/24 07:12:41;;;;;;;7.90;4.72;;;24.00;99.90;;;;;;7388297;19;20144;-74
2023/08/24 07:15:10;;;;;;;12.48;4.45;;;24.00;99.90;;;;;;7387203;19;20157;-73
2023/08/24 07:17:36;;;;;;;6.20;4.28;;;24.10;99.90;;;;;;7387143;19;20138;-73
2023/08/24 07:20:05;;;;;;;6.45;4.35;;;24.30;99.90;;;;;;7384849;19;20170;-73
2023/08/24 07:22:32;;;;;;;5.45;4.05;;;24.70;99.90;;;;;;7382146;19;20134;-76
2023/08/24 07:24:57;;;;;;;6.57;4.10;;;25.00;99.90;;;;;;7386437;19;20154;-74
2023/08/24 07:27:23;;;;;;;5.75;4.15;;;24.90;99.90;;;;;;7382975;19;20816;-73
2023/08/24 07:29:52;;;;;;;6.00;3.92;;;24.70;99.90;;;;;;7385392;19;20256;-75
2023/08/24 07:32:19;;;;;;;5.40;3.90;;;24.90;99.90;;;;;;7385250;19;20218;-73
2023/08/24 07:34:44;;;;;;;7.68;4.65;;;25.40;99.90;;;;;;7383987;19;20173;-70
2023/08/24 07:37:10;;;;;;;7.65;3.97;;;25.80;99.90;;;;;;7384627;19;20131;-73
2023/08/24 07:39:37;;;;;;;7.50;4.50;;;25.70;99.90;;;;;;7385755;19;20146;-74
2023/08/24 07:42:05;;;;;;;6.25;4.63;;;25.50;99.90;;;;;;7380750;19;20606;-73
2023/08/24 07:44:31;;;;;;;5.80;4.60;;;25.70;99.90;;;;;;7382325;19;20154;-74
2023/08/24 07:46:57;;;;;;;7.30;4.72;;;25.90;99.90;;;;;;7384777;19;20571;-75
2023/08/24 07:49:22;;;;;;;8.27;4.53;;;26.20;99.90;;;;;;7383314;19;20502;-73
2023/08/24 07:51:49;;;;;;;6.70;4.72;;;26.40;99.90;;;;;;7383909;19;20151;-76
2023/08/24 07:54:15;;;;;;;7.85;5.57;;;26.70;99.90;;;;;;7386353;19;20174;-75
2023/08/24 07:56:40;;;;;;;9.90;4.70;;;27.10;99.90;;;;;;7382886;19;20165;-74
2023/08/24 07:59:06;;;;;;;6.97;4.57;;;27.60;99.90;;;;;;7384068;19;20146;-74
2023/08/24 08:01:33;;;;;;;8.30;4.10;;;28.00;99.90;;;;;;7383015;19;20174;-73
2023/08/24 08:04:00;;;;;;;8.48;4.63;;;28.30;99.90;;;;;;7388755;19;20158;-74
2023/08/24 08:06:26;;;;;;;5.55;3.60;;;28.40;99.90;;;;;;7392461;19;20147;-73
2023/08/24 08:08:52;;;;;;;6.75;3.90;;;28.40;99.90;;;;;;7390463;19;20138;-73
2023/08/24 08:11:18;;;;;;;4.90;3.33;;;28.30;99.90;;;;;;7391111;19;20138;-73
2023/08/24 08:13:45;;;;;;;8.48;3.50;;;28.50;99.90;;;;;;7390897;19;20149;-74
2023/08/24 08:16:10;;;;;;;5.40;3.80;;;28.20;99.90;;;;;;7392781;19;20138;-73
2023/08/24 08:18:36;;;;;;;6.63;3.65;;;27.90;99.90;;;;;;7391530;19;20466;-73
2023/08/24 08:21:19;;;;;;;7.03;3.60;;;27.30;99.90;;;;;;7390910;19;20134;-74
2023/08/24 08:23:45;;;;;;;8.05;4.05;;;26.80;99.90;;;;;;7388755;19;20142;-73
2023/08/24 08:26:11;;;;;;;4.85;3.25;;;26.80;99.90;;;;;;7391464;19;20154;-73
2023/08/24 08:28:37;;;;;;;6.43;3.60;;;27.00;99.90;;;;;;7390925;19;20142;-73
2023/08/24 08:31:03;;;;;;;4.88;3.65;;;27.30;99.90;;;;;;7389981;19;20143;-73
2023/08/24 08:33:29;;;;;;;4.93;3.53;;;27.40;99.90;;;;;;7390658;19;20222;-71
2023/08/24 08:35:56;;;;;;;5.90;3.60;;;27.70;99.90;;;;;;7389514;19;20150;-73
2023/08/24 08:38:25;;;;;;;4.57;3.30;;;27.50;99.90;;;;;;7390835;19;20578;-73
2023/08/24 08:40:56;;;;;;;3.55;3.25;;;27.40;99.90;;;;;;7390770;19;20511;-73
2023/08/24 08:43:25;;;;;;;6.10;3.50;;;27.30;99.90;;;;;;7389632;19;20150;-73
2023/08/24 08:45:52;;;;;;;4.88;3.70;;;27.20;99.90;;;;;;7390460;19;20152;-76
2023/08/24 08:48:20;;;;;;;4.07;3.50;;;27.00;99.90;;;;;;7389199;19;20151;-74
2023/08/24 08:50:49;;;;;;;11.02;3.90;;;27.00;99.90;;;;;;7390382;19;20140;-72
2023/08/24 08:53:15;;;;;;;6.28;3.45;;;27.00;99.90;;;;;;7390602;19;20160;-73
2023/08/24 08:55:42;;;;;;;7.38;3.42;;;27.00;99.90;;;;;;7390011;19;20177;-74
2023/08/24 08:58:08;;;;;;;5.63;3.90;;;27.00;99.90;;;;;;7387878;19;20143;-73
2023/08/24 09:00:35;;;;;;;3.95;3.15;;;27.10;99.90;;;;;;7388318;19;20165;-74
2023/08/24 09:03:02;;;;;;;3.00;2.70;;;27.10;99.90;;;;;;7388260;19;20221;-73
2023/08/24 09:05:28;;;;;;;3.95;3.08;;;27.40;99.90;;;;;;7386590;19;20178;-75
2023/08/24 09:07:57;;;;;;;5.93;3.50;;;27.70;99.90;;;;;;7388551;19;20511;-73
2023/08/24 09:10:23;;;;;;;4.45;3.47;;;27.70;99.90;;;;;;7388588;19;20178;-74
2023/08/24 09:12:49;;;;;;;4.55;3.47;;;27.60;99.90;;;;;;7391000;19;20221;-75
2023/08/24 09:15:25;;;;;;;4.85;3.60;;;27.40;99.90;;;;;;7386398;19;20607;-75
2023/08/24 09:17:51;;;;;;;6.90;3.80;;;27.40;99.90;;;;;;7388577;19;20146;-75
2023/08/24 09:20:17;;;;;;;4.78;3.53;;;27.20;99.90;;;;;;7391521;19;20925;-74
2023/08/24 09:22:45;;;;;;;4.75;3.38;;;27.20;99.90;;;;;;7387709;19;20154;-75
2023/08/24 09:25:11;;;;;;;4.03;3.20;;;27.30;99.90;;;;;;7387814;19;20162;-73
2023/08/24 09:27:37;;;;;;;6.55;3.50;;;27.40;99.90;;;;;;7389522;19;20250;-73
2023/08/24 09:30:05;;;;;;;4.72;3.75;;;27.50;99.90;;;;;;7389205;19;20359;-73
2023/08/24 09:32:32;;;;;;;5.57;3.50;;;27.50;99.90;;;;;;7388177;19;20165;-73
2023/08/24 09:35:08;;;;;;;7.60;4.68;;;27.60;99.90;;;;;;7389210;19;20164;-73
2023/08/24 09:37:35;;;;;;;7.80;3.58;;;27.70;99.90;;;;;;7389697;19;20166;-74
2023/08/24 09:40:11;;;;;;;6.90;4.25;;;27.70;99.90;;;;;;7386836;19;20146;-74
2023/08/24 09:42:43;;;;;;;3.63;3.30;;;27.80;99.90;;;;;;7386567;19;20461;-74
2023/08/24 09:45:12;;;;;;;8.55;4.43;;;27.80;99.90;;;;;;7386172;19;20146;-74
2023/08/24 09:47:38;;;;;;;10.38;4.60;;;27.90;99.90;;;;;;7389039;19;20577;-74
2023/08/24 09:50:04;;;;;;;7.00;4.72;;;28.00;99.90;;;;;;7385873;19;20134;-74
2023/08/24 09:52:34;;;;;;;9.88;5.63;;;28.10;99.90;;;;;;7386965;19;20167;-74
2023/08/24 09:55:07;;;;;;;7.70;5.03;;;28.10;99.90;;;;;;7388323;19;20578;-74
2023/08/24 09:57:38;;;;;;;7.55;4.63;;;28.30;99.90;;;;;;7389411;19;20940;-75
2023/08/24 10:00:15;;;;;;;8.93;5.85;;;28.30;99.90;;;;;;7385510;19;20135;-74
2023/08/24 10:02:52;;;;;;;6.18;3.92;;;28.40;99.90;;;;;;7384408;19;20157;-74
2023/08/24 10:05:24;;;;;;;7.15;4.28;;;28.40;99.90;;;;;;7383260;19;20617;-74
2023/08/24 10:07:55;;;;;;;7.85;4.18;;;28.50;99.90;;;;;;7387366;19;20168;-73
2023/08/24 10:10:25;;;;;;;7.50;3.30;;;28.70;99.90;;;;;;7388886;19;20123;-74
2023/08/24 10:12:57;;;;;;;5.60;3.45;;;28.70;99.90;;;;;;7387713;19;20607;-75
2023/08/24 10:15:24;;;;;;;4.93;3.60;;;28.90;99.90;;;;;;7388131;19;20142;-74
2023/08/24 10:17:51;;;;;;;4.20;3.58;;;29.20;99.90;;;;;;7386823;19;20142;-76
2023/08/24 10:20:21;;;;;;;6.30;3.42;;;29.40;99.90;;;;;;7386693;19;20233;-75
2023/08/24 10:22:48;;;;;;;3.92;3.58;;;29.40;99.90;;;;;;7384732;19;20139;-75
2023/08/24 10:25:18;;;;;;;5.63;4.00;;;29.10;99.90;;;;;;7387984;19;20154;-74
2023/08/24 10:27:45;;;;;;;4.22;3.50;;;29.00;99.90;;;;;;7386253;19;20139;-74
2023/08/24 10:30:12;;;;;;;7.07;3.80;;;29.00;99.90;;;;;;7387010;19;20154;-73
2023/08/24 10:32:41;;;;;;;6.70;3.42;;;29.00;99.90;;;;;;7386345;19;20177;-74
2023/08/24 10:35:07;;;;;;;6.35;3.63;;;29.40;99.90;;;;;;7382853;19;20492;-75
2023/08/24 10:37:36;;;;;;;5.20;4.70;;;29.60;99.90;;;;;;7385966;19;20154;-74
2023/08/24 10:40:03;;;;;;;4.25;3.85;;;29.60;99.90;;;;;;7387170;19;20155;-74
2023/08/24 10:42:44;;;;;;;4.15;3.53;;;29.60;99.90;;;;;;7384138;19;20469;-75
2023/08/24 10:45:11;;;;;;;4.80;3.75;;;29.70;99.90;;;;;;7388038;19;20361;-74
2023/08/24 10:47:46;;;;;;;4.25;3.60;;;29.80;99.90;;;;;;7388424;19;20134;-74
2023/08/24 10:50:14;;;;;;;5.40;3.75;;;29.80;99.90;;;;;;7388382;19;20138;-73
2023/08/24 10:52:43;;;;;;;4.40;3.80;;;29.80;99.90;;;;;;7381896;19;20161;-73
2023/08/24 10:55:27;;;;;;;6.10;4.43;;;29.80;99.90;;;;;;7379602;19;20406;-74
2023/08/24 10:58:01;;;;;;;4.18;3.58;;;29.80;99.90;;;;;;7379237;19;20571;-73
2023/08/24 11:00:32;;;;;;;6.43;4.07;;;29.90;99.90;;;;;;7384676;19;20307;-74
2023/08/24 11:02:59;;;;;;;5.50;4.47;;;30.10;99.90;;;;;;7382578;19;20150;-73
2023/08/24 11:05:31;;;;;;;3.78;3.22;;;30.20;99.90;;;;;;7381175;19;20154;-73
2023/08/24 11:08:05;;;;;;;5.20;4.05;;;30.40;99.90;;;;;;7385038;19;20154;-74
2023/08/24 11:10:53;;;;;;;10.02;4.13;;;30.60;99.90;;;;;;7385248;19;20165;-73
2023/08/24 11:13:22;;;;;;;10.07;4.20;;;30.80;99.90;;;;;;7386538;19;20130;-74
2023/08/24 11:15:57;;;;;;;7.22;4.93;;;30.80;99.90;;;;;;7386068;19;20183;-74
2023/08/24 11:18:30;;;;;;;7.45;4.95;;;30.80;99.90;;;;;;7385537;19;20160;-73
2023/08/24 11:21:04;;;;;;;4.47;4.05;;;30.80;99.90;;;;;;7385540;19;20614;-73
2023/08/24 11:23:31;;;;;;;5.60;4.70;;;30.80;99.90;;;;;;7380488;19;20148;-74
2023/08/24 11:26:00;;;;;;;4.30;3.88;;;30.90;99.90;;;;;;7381895;19;20158;-72
2023/08/24 11:28:31;;;;;;;6.30;4.05;;;31.00;99.90;;;;;;7381287;19;20194;-73
2023/08/24 11:30:58;;;;;;;8.30;4.55;;;31.00;99.90;;;;;;7377421;19;20230;-73
2023/08/24 11:33:32;;;;;;;5.68;4.47;;;31.00;99.90;;;;;;7384730;19;20173;-73
2023/08/24 11:35:59;;;;;;;6.30;3.95;;;31.00;99.90;;;;;;7385287;19;20134;-73
2023/08/24 11:38:25;;;;;;;5.50;4.05;;;31.00;99.90;;;;;;7384825;19;20139;-74
2023/08/24 11:40:51;;;;;;;5.05;3.78;;;31.20;99.90;;;;;;7392027;19;20607;-74
2023/08/24 11:43:26;;;;;;;7.18;4.07;;;31.20;99.90;;;;;;7392047;19;20141;-73
2023/08/24 11:45:54;;;;;;;6.32;4.70;;;31.20;99.90;;;;;;7392122;19;20161;-73
2023/08/24 11:48:25;;;;;;;4.93;3.40;;;31.30;99.90;;;;;;7391081;19;20149;-73
2023/08/24 11:50:51;;;;;;;9.10;4.35;;;31.40;99.90;;;;;;7392715;19;20487;-74
2023/08/24 11:53:17;;;;;;;5.32;3.92;;;31.60;99.90;;;;;;7392777;19;20133;-74
2023/08/24 11:55:43;;;;;;;7.93;4.60;;;31.60;99.90;;;;;;7390161;19;20486;-74
2023/08/24 11:58:16;;;;;;;6.40;4.35;;;31.70;99.90;;;;;;7392837;19;20130;-74
2023/08/24 12:00:43;;;;;;;6.85;4.30;;;31.80;99.90;;;;;;7392027;19;20599;-74
2023/08/24 12:03:09;;;;;;;5.13;4.00;;;31.70;99.90;;;;;;7392492;19;20138;-73
2023/08/24 12:05:35;;;;;;;6.03;3.92;;;31.60;99.90;;;;;;7390425;19;20154;-74
2023/08/24 12:08:02;;;;;;;4.28;3.72;;;31.70;99.90;;;;;;7391992;19;20170;-74
2023/08/24 12:10:28;;;;;;;5.78;4.20;;;31.90;99.90;;;;;;7390004;19;20134;-74
2023/08/24 12:13:07;;;;;;;5.53;4.30;;;32.00;99.90;;;;;;7391211;19;20131;-74
2023/08/24 12:15:37;;;;;;;5.88;4.00;;;32.10;99.90;;;;;;7390501;19;20146;-74
2023/08/24 12:18:10;;;;;;;5.65;4.30;;;32.10;99.90;;;;;;7390755;19;20605;-74
2023/08/24 12:20:36;;;;;;;4.93;4.05;;;32.30;99.90;;;;;;7390125;19;20130;-73
2023/08/24 12:23:03;;;;;;;4.40;3.83;;;32.30;99.90;;;;;;7384274;19;20183;-73
2023/08/24 12:25:29;;;;;;;4.18;3.88;;;32.40;99.90;;;;;;7391189;19;20135;-74
2023/08/24 12:28:15;;;;;;;9.82;4.55;;;32.40;99.90;;;;;;7391521;19;20137;-74
2023/08/24 12:30:52;;;;;;;7.97;4.30;;;32.50;99.90;;;;;;7390597;19;20146;-73
2023/08/24 12:33:31;;;;;;;7.22;4.32;;;32.30;99.90;;;;;;7389203;19;20130;-74
2023/08/24 12:36:00;;;;;;;5.13;4.60;;;32.40;99.90;;;;;;7388762;19;20142;-74
2023/08/24 12:38:27;;;;;;;6.65;4.85;;;32.40;99.90;;;;;;7389164;19;20135;-74
2023/08/24 12:40:53;;;;;;;5.55;4.30;;;32.40;99.90;;;;;;7392162;19;20135;-74
2023/08/24 12:43:19;;;;;;;6.20;4.00;;;32.40;99.90;;;;;;7388907;19;20143;-76
2023/08/24 12:45:45;;;;;;;6.03;4.28;;;32.30;99.90;;;;;;7388638;19;20142;-74
2023/08/24 12:48:11;;;;;;;4.32;3.92;;;32.40;99.90;;;;;;7388472;19;20317;-75